createdAt,value
2023-05-10T00:00:47.390Z,14.00
2023-05-10T00:03:14.215Z,14.00
2023-05-10T00:05:41.328Z,13.90
2023-05-10T00:08:07.993Z,14.00
2023-05-10T00:10:34.618Z,14.00
2023-05-10T00:13:01.296Z,14.00
2023-05-10T00:15:28.015Z,14.10
2023-05-10T00:17:54.754Z,14.10
2023-05-10T00:20:21.503Z,14.10
2023-05-10T00:22:48.143Z,14.10
2023-05-10T00:25:14.876Z,14.00
2023-05-10T00:27:41.525Z,14.00
2023-05-10T00:30:08.684Z,14.00
2023-05-10T00:32:35.517Z,13.90
2023-05-10T00:35:02.134Z,13.90
2023-05-10T00:37:28.873Z,13.90
2023-05-10T00:39:55.586Z,13.80
2023-05-10T00:42:23.323Z,13.80
2023-05-10T00:44:49.991Z,13.70
2023-05-10T00:47:17.526Z,13.70
2023-05-10T00:49:44.747Z,13.60
2023-05-10T00:52:11.481Z,13.60
2023-05-10T00:54:38.218Z,13.60
2023-05-10T00:57:05.416Z,13.70
2023-05-10T00:59:32.448Z,13.60
2023-05-10T01:01:59.368Z,13.60
2023-05-10T01:04:29.350Z,13.50
2023-05-10T01:06:56.060Z,13.50
2023-05-10T01:09:23.398Z,13.50
2023-05-10T01:11:51.143Z,13.50
2023-05-10T01:14:19.857Z,13.50
2023-05-10T01:16:48.322Z,13.50
2023-05-10T01:19:22.804Z,13.50
2023-05-10T01:22:11.479Z,13.40
2023-05-10T01:24:51.213Z,13.40
2023-05-10T01:27:29.878Z,13.40
2023-05-10T01:30:17.897Z,13.50
2023-05-10T01:33:20.178Z,13.50
2023-05-10T01:35:55.428Z,13.50
2023-05-10T01:38:31.268Z,13.50
2023-05-10T01:41:36.287Z,13.50
2023-05-10T01:44:18.537Z,13.40
2023-05-10T01:46:50.752Z,13.40
2023-05-10T01:49:26.218Z,13.40
2023-05-10T01:51:57.345Z,13.40
2023-05-10T01:54:25.333Z,13.40
2023-05-10T01:57:00.353Z,13.40
2023-05-10T01:59:31.448Z,13.40
2023-05-10T02:02:00.283Z,13.40
2023-05-10T02:04:28.518Z,13.40
2023-05-10T02:06:56.379Z,13.50
2023-05-10T02:09:24.813Z,13.50
2023-05-10T02:11:51.434Z,13.50
2023-05-10T02:14:19.645Z,13.50
2023-05-10T02:16:47.532Z,13.50
2023-05-10T02:19:15.450Z,13.50
2023-05-10T02:21:43.652Z,13.50
2023-05-10T02:24:12.189Z,13.50
2023-05-10T02:26:39.449Z,13.50
2023-05-10T02:29:07.721Z,13.50
2023-05-10T02:31:36.151Z,13.50
2023-05-10T02:34:04.805Z,13.50
2023-05-10T02:36:32.332Z,13.50
2023-05-10T02:39:01.800Z,13.50
2023-05-10T02:41:29.507Z,13.50
2023-05-10T02:44:00.121Z,13.50
2023-05-10T02:46:26.885Z,13.40
2023-05-10T02:48:53.640Z,13.40
2023-05-10T02:51:24.253Z,13.40
2023-05-10T02:53:54.294Z,13.40
2023-05-10T02:56:34.156Z,13.40
2023-05-10T02:59:00.961Z,13.50
2023-05-10T03:01:28.038Z,13.40
2023-05-10T03:03:54.987Z,13.50
2023-05-10T03:06:24.325Z,13.50
2023-05-10T03:08:51.280Z,13.50
2023-05-10T03:11:30.818Z,13.50
2023-05-10T03:14:09.005Z,13.40
2023-05-10T03:17:08.103Z,13.40
2023-05-10T03:19:52.015Z,13.40
2023-05-10T03:22:27.541Z,13.30
2023-05-10T03:24:57.476Z,13.30
2023-05-10T03:27:26.189Z,13.30
2023-05-10T03:29:54.613Z,13.30
2023-05-10T03:32:21.363Z,13.30
2023-05-10T03:34:47.971Z,13.30
2023-05-10T03:37:14.602Z,13.30
2023-05-10T03:39:41.322Z,13.30
2023-05-10T03:42:07.957Z,13.40
2023-05-10T03:44:34.576Z,13.40
2023-05-10T03:47:01.254Z,13.40
2023-05-10T03:49:27.913Z,13.40
2023-05-10T03:51:54.518Z,13.40
2023-05-10T03:54:21.401Z,13.40
2023-05-10T03:56:48.948Z,13.50
2023-05-10T03:59:15.998Z,13.40
2023-05-10T04:01:42.669Z,13.50
2023-05-10T04:04:09.285Z,13.50
2023-05-10T04:06:36.056Z,13.50
2023-05-10T04:09:05.330Z,13.40
2023-05-10T04:11:32.419Z,13.50
2023-05-10T04:13:59.034Z,13.40
2023-05-10T04:16:25.847Z,13.40
2023-05-10T04:18:52.550Z,13.40
2023-05-10T04:21:19.264Z,13.40
2023-05-10T04:23:45.914Z,13.40
2023-05-10T04:26:12.888Z,13.40
2023-05-10T04:28:39.741Z,13.50
2023-05-10T04:31:08.062Z,13.50
2023-05-10T04:33:35.371Z,13.40
2023-05-10T04:36:02.646Z,13.50
2023-05-10T04:38:29.612Z,13.50
2023-05-10T04:41:05.760Z,13.50
2023-05-10T04:43:32.585Z,13.50
2023-05-10T04:45:59.279Z,13.50
2023-05-10T04:48:25.907Z,13.40
2023-05-10T04:50:53.381Z,13.40
2023-05-10T04:53:20.040Z,13.40
2023-05-10T04:55:47.590Z,13.40
2023-05-10T04:58:14.432Z,13.30
2023-05-10T05:00:41.160Z,13.30
2023-05-10T05:03:08.023Z,13.30
2023-05-10T05:05:34.782Z,13.30
2023-05-10T05:08:01.640Z,13.40
2023-05-10T05:10:28.242Z,13.40
2023-05-10T05:12:54.865Z,13.40
2023-05-10T05:15:21.737Z,13.40
2023-05-10T05:17:48.496Z,13.40
2023-05-10T05:20:15.385Z,13.30
2023-05-10T05:22:42.350Z,13.40
2023-05-10T05:25:09.394Z,13.40
2023-05-10T05:27:36.059Z,13.40
2023-05-10T05:30:03.225Z,13.40
2023-05-10T05:32:29.885Z,13.40
2023-05-10T05:34:56.514Z,13.40
2023-05-10T05:37:23.643Z,13.40
2023-05-10T05:39:50.262Z,13.50
2023-05-10T05:42:18.695Z,13.60
2023-05-10T05:44:45.756Z,13.70
2023-05-10T05:47:12.372Z,13.60
2023-05-10T05:49:39.094Z,13.60
2023-05-10T05:52:06.017Z,13.70
2023-05-10T05:54:32.875Z,13.70
2023-05-10T05:57:01.321Z,13.70
2023-05-10T05:59:28.721Z,13.70
2023-05-10T06:01:55.540Z,13.70
2023-05-10T06:04:22.374Z,13.70
2023-05-10T06:06:49.103Z,13.70
2023-05-10T06:09:15.953Z,13.70
2023-05-10T06:11:42.998Z,13.70
2023-05-10T06:14:10.179Z,13.70
2023-05-10T06:16:36.899Z,13.80
2023-05-10T06:19:04.162Z,13.80
2023-05-10T06:21:31.232Z,13.80
2023-05-10T06:23:58.071Z,13.80
2023-05-10T06:26:24.751Z,13.80
2023-05-10T06:28:51.374Z,13.80
2023-05-10T06:31:18.650Z,13.90
2023-05-10T06:33:45.586Z,14.00
2023-05-10T06:36:12.221Z,14.00
2023-05-10T06:38:38.819Z,14.10
2023-05-10T06:41:05.530Z,14.10
2023-05-10T06:43:32.523Z,14.10
2023-05-10T06:45:59.350Z,14.10
2023-05-10T06:48:26.069Z,14.20
2023-05-10T06:50:52.754Z,14.30
2023-05-10T06:53:19.482Z,14.30
2023-05-10T06:55:46.475Z,14.30
2023-05-10T06:58:13.641Z,14.30
2023-05-10T07:00:41.497Z,14.40
2023-05-10T07:03:08.434Z,14.40
2023-05-10T07:05:35.444Z,14.50
2023-05-10T07:08:02.492Z,14.60
2023-05-10T07:10:29.237Z,14.50
2023-05-10T07:12:56.063Z,14.60
2023-05-10T07:15:22.977Z,14.60
2023-05-10T07:17:49.738Z,14.80
2023-05-10T07:20:16.628Z,14.90
2023-05-10T07:22:43.271Z,15.00
2023-05-10T07:25:10.385Z,14.90
2023-05-10T07:27:37.167Z,14.90
2023-05-10T07:30:04.203Z,14.80
2023-05-10T07:32:31.586Z,14.90
2023-05-10T07:34:58.280Z,14.90
2023-05-10T07:37:24.915Z,14.90
2023-05-10T07:39:51.535Z,15.00
2023-05-10T07:42:18.612Z,15.10
2023-05-10T07:44:45.357Z,15.10
2023-05-10T07:47:11.963Z,15.10
2023-05-10T07:49:39.221Z,15.10
2023-05-10T07:52:05.876Z,15.10
2023-05-10T07:54:32.710Z,15.00
2023-05-10T07:57:00.635Z,14.80
2023-05-10T07:59:27.312Z,14.80
2023-05-10T08:01:53.985Z,14.80
2023-05-10T08:04:20.670Z,14.90
2023-05-10T08:06:47.375Z,14.90
2023-05-10T08:09:14.454Z,15.00
2023-05-10T08:11:41.068Z,15.00
2023-05-10T08:14:07.690Z,14.90
2023-05-10T08:16:35.207Z,15.00
2023-05-10T08:19:02.308Z,15.00
2023-05-10T08:21:29.197Z,15.00
2023-05-10T08:23:55.897Z,15.10
2023-05-10T08:26:22.641Z,15.20
2023-05-10T08:28:49.380Z,15.40
2023-05-10T08:31:16.825Z,15.50
2023-05-10T08:33:44.499Z,15.50
2023-05-10T08:36:11.615Z,15.50
2023-05-10T08:38:38.832Z,15.40
2023-05-10T08:41:06.866Z,15.50
2023-05-10T08:43:33.991Z,15.50
2023-05-10T08:46:06.094Z,15.60
2023-05-10T08:48:35.260Z,15.70
2023-05-10T08:51:03.634Z,15.80
2023-05-10T08:53:33.986Z,16.00
2023-05-10T08:56:01.879Z,16.20
2023-05-10T08:58:28.743Z,16.20
2023-05-10T09:00:56.421Z,16.30
2023-05-10T09:03:23.138Z,16.50
2023-05-10T09:05:50.189Z,16.50
2023-05-10T09:08:17.446Z,16.70
2023-05-10T09:10:49.170Z,16.80
2023-05-10T09:13:16.662Z,16.80
2023-05-10T09:15:44.773Z,16.60
2023-05-10T09:18:11.731Z,16.40
2023-05-10T09:20:38.567Z,16.20
2023-05-10T09:23:06.063Z,16.00
2023-05-10T09:25:34.540Z,15.60
2023-05-10T09:28:01.351Z,15.30
2023-05-10T09:30:29.566Z,15.00
2023-05-10T09:32:58.324Z,14.80
2023-05-10T09:35:29.826Z,14.60
2023-05-10T09:38:00.055Z,14.50
2023-05-10T09:40:29.042Z,14.40
2023-05-10T09:42:56.745Z,14.30
2023-05-10T09:45:24.994Z,14.30
2023-05-10T09:47:52.227Z,14.40
2023-05-10T09:50:20.393Z,14.50
2023-05-10T09:52:58.735Z,14.70
2023-05-10T09:55:42.504Z,14.80
2023-05-10T09:58:12.305Z,15.00
2023-05-10T10:00:41.096Z,15.10
2023-05-10T10:03:17.144Z,15.30
2023-05-10T10:05:45.330Z,15.40
2023-05-10T10:08:13.318Z,15.60
2023-05-10T10:10:46.874Z,15.70
2023-05-10T10:13:14.337Z,15.90
2023-05-10T10:15:41.791Z,16.00
2023-05-10T10:18:13.193Z,16.10
2023-05-10T10:20:40.006Z,16.30
2023-05-10T10:23:06.612Z,16.40
2023-05-10T10:25:33.584Z,16.60
2023-05-10T10:28:17.071Z,16.80
2023-05-10T10:30:49.328Z,17.10
2023-05-10T10:33:35.007Z,17.30
2023-05-10T10:36:03.497Z,17.30
2023-05-10T10:38:54.352Z,17.40
2023-05-10T10:41:38.112Z,17.40
2023-05-10T10:44:26.887Z,17.40
2023-05-10T10:47:01.364Z,17.20
2023-05-10T10:49:28.309Z,17.10
2023-05-10T10:52:17.011Z,17.10
2023-05-10T10:54:57.762Z,17.20
2023-05-10T10:57:27.483Z,17.30
2023-05-10T11:00:18.823Z,17.30
2023-05-10T11:02:49.751Z,17.00
2023-05-10T11:05:38.760Z,16.80
2023-05-10T11:08:31.395Z,16.70
2023-05-10T11:11:00.781Z,16.40
2023-05-10T11:13:32.720Z,16.20
2023-05-10T11:16:10.075Z,16.00
2023-05-10T11:18:38.121Z,15.90
2023-05-10T11:21:06.169Z,15.70
2023-05-10T11:23:48.546Z,15.70
2023-05-10T11:26:15.620Z,15.60
2023-05-10T11:28:49.764Z,15.60
2023-05-10T11:31:17.830Z,15.60
2023-05-10T11:33:50.270Z,15.60
2023-05-10T11:36:22.774Z,15.60
2023-05-10T11:38:50.216Z,15.60
2023-05-10T11:41:19.718Z,15.60
2023-05-10T11:43:51.878Z,15.70
2023-05-10T11:46:21.398Z,15.80
2023-05-10T11:48:51.563Z,15.90
2023-05-10T11:51:25.336Z,16.00
2023-05-10T11:53:54.363Z,16.20
2023-05-10T11:56:21.618Z,16.40
2023-05-10T11:58:58.086Z,16.70
2023-05-10T12:01:28.652Z,16.90
2023-05-10T12:03:59.642Z,17.00
2023-05-10T12:06:32.705Z,17.20
2023-05-10T12:09:00.103Z,17.20
2023-05-10T12:11:28.800Z,17.30
2023-05-10T12:13:57.990Z,17.30
2023-05-10T12:16:27.055Z,17.10
2023-05-10T12:18:59.351Z,17.10
2023-05-10T12:21:26.800Z,17.00
2023-05-10T12:23:55.389Z,16.90
2023-05-10T12:26:27.318Z,16.80
2023-05-10T12:29:13.173Z,16.70
2023-05-10T12:31:56.794Z,16.60
2023-05-10T12:34:34.539Z,16.60
2023-05-10T12:37:01.612Z,16.60
2023-05-10T12:39:42.564Z,16.50
2023-05-10T12:42:09.540Z,16.50
2023-05-10T12:44:36.158Z,16.60
2023-05-10T12:47:02.804Z,16.60
2023-05-10T12:49:29.442Z,16.60
2023-05-10T12:51:56.055Z,16.70
2023-05-10T12:54:22.698Z,16.70
2023-05-10T12:56:49.279Z,16.70
2023-05-10T12:59:15.895Z,16.80
2023-05-10T13:01:42.543Z,16.80
2023-05-10T13:04:09.191Z,16.80
2023-05-10T13:06:36.156Z,16.90
2023-05-10T13:09:03.388Z,16.90
2023-05-10T13:11:30.094Z,17.00
2023-05-10T13:13:56.851Z,17.10
2023-05-10T13:16:23.676Z,17.10
2023-05-10T13:18:50.416Z,17.20
2023-05-10T13:21:17.461Z,17.20
2023-05-10T13:23:44.097Z,17.20
2023-05-10T13:26:10.722Z,17.10
2023-05-10T13:28:39.612Z,17.10
2023-05-10T13:31:06.292Z,17.10
2023-05-10T13:33:32.921Z,17.20
2023-05-10T13:35:59.529Z,17.30
2023-05-10T13:38:26.602Z,17.30
2023-05-10T13:40:53.727Z,17.20
2023-05-10T13:43:20.849Z,17.20
2023-05-10T13:45:47.519Z,17.30
2023-05-10T13:48:14.322Z,17.50
2023-05-10T13:50:41.103Z,17.60
2023-05-10T13:53:07.776Z,17.70
2023-05-10T13:55:34.605Z,17.80
2023-05-10T13:58:01.313Z,17.80
2023-05-10T14:00:28.111Z,17.80
2023-05-10T14:02:55.074Z,17.90
2023-05-10T14:05:25.475Z,17.80
2023-05-10T14:07:53.031Z,17.70
2023-05-10T14:10:19.694Z,17.70
2023-05-10T14:12:46.312Z,17.60
2023-05-10T14:15:12.929Z,17.50
2023-05-10T14:17:39.615Z,17.60
2023-05-10T14:20:06.951Z,17.60
2023-05-10T14:22:33.818Z,17.50
2023-05-10T14:25:00.693Z,17.40
2023-05-10T14:27:27.435Z,17.40
2023-05-10T14:29:54.883Z,17.30
2023-05-10T14:32:21.566Z,17.30
2023-05-10T14:34:48.260Z,17.10
2023-05-10T14:37:16.074Z,17.00
2023-05-10T14:39:44.883Z,16.90
2023-05-10T14:42:23.025Z,16.80
2023-05-10T14:44:58.511Z,16.80
2023-05-10T14:47:26.939Z,16.70
2023-05-10T14:49:53.653Z,16.70
2023-05-10T14:52:20.302Z,16.70
2023-05-10T14:54:47.138Z,16.60
2023-05-10T14:57:14.316Z,16.70
2023-05-10T14:59:40.910Z,16.70
2023-05-10T15:02:09.303Z,16.70
2023-05-10T15:04:36.309Z,16.70
2023-05-10T15:07:04.018Z,16.70
2023-05-10T15:09:30.746Z,16.70
2023-05-10T15:11:57.441Z,16.60
2023-05-10T15:14:24.181Z,16.60
2023-05-10T15:16:50.882Z,16.60
2023-05-10T15:19:17.582Z,16.60
2023-05-10T15:21:45.447Z,16.60
2023-05-10T15:24:12.063Z,16.70
2023-05-10T15:26:38.896Z,16.80
2023-05-10T15:29:05.711Z,16.80
2023-05-10T15:31:32.363Z,16.80
2023-05-10T15:34:01.945Z,16.70
2023-05-10T15:36:28.534Z,16.60
2023-05-10T15:38:55.623Z,16.60
2023-05-10T15:41:22.346Z,16.60
2023-05-10T15:43:49.297Z,16.50
2023-05-10T15:46:15.955Z,16.50
2023-05-10T15:48:42.769Z,16.40
2023-05-10T15:51:09.369Z,16.50
2023-05-10T15:53:36.213Z,16.60
2023-05-10T15:56:03.080Z,16.70
2023-05-10T15:58:29.739Z,16.70
2023-05-10T16:00:57.607Z,16.70
2023-05-10T16:03:24.742Z,16.70
2023-05-10T16:05:51.434Z,16.60
2023-05-10T16:08:18.100Z,16.50
2023-05-10T16:10:44.734Z,16.40
2023-05-10T16:13:11.485Z,16.30
2023-05-10T16:15:38.080Z,16.20
2023-05-10T16:18:05.097Z,16.20
2023-05-10T16:20:32.891Z,16.10
2023-05-10T16:23:07.598Z,16.00
2023-05-10T16:25:34.362Z,16.00
2023-05-10T16:28:01.194Z,15.90
2023-05-10T16:30:30.179Z,15.90
2023-05-10T16:32:57.941Z,15.80
2023-05-10T16:35:24.815Z,15.80
2023-05-10T16:37:51.618Z,15.80
2023-05-10T16:40:18.703Z,15.70
2023-05-10T16:42:45.388Z,15.60
2023-05-10T16:45:12.323Z,15.60
2023-05-10T16:47:40.189Z,15.50
2023-05-10T16:50:07.874Z,15.40
2023-05-10T16:52:36.004Z,15.40
2023-05-10T16:55:04.291Z,15.40
2023-05-10T16:57:32.759Z,15.40
2023-05-10T16:59:59.509Z,15.30
2023-05-10T17:02:26.504Z,15.30
2023-05-10T17:04:54.875Z,15.20
2023-05-10T17:07:22.632Z,15.20
2023-05-10T17:09:50.791Z,15.10
2023-05-10T17:12:17.439Z,15.10
2023-05-10T17:14:44.036Z,15.10
2023-05-10T17:17:11.227Z,15.10
2023-05-10T17:19:37.959Z,15.00
2023-05-10T17:22:04.740Z,15.00
2023-05-10T17:24:31.619Z,15.00
2023-05-10T17:27:00.161Z,15.00
2023-05-10T17:29:28.130Z,15.00
2023-05-10T17:31:54.794Z,14.90
2023-05-10T17:34:21.604Z,14.90
2023-05-10T17:36:48.176Z,14.80
2023-05-10T17:39:14.962Z,14.80
2023-05-10T17:41:41.747Z,14.70
2023-05-10T17:44:08.366Z,14.70
2023-05-10T17:46:35.513Z,14.70
2023-05-10T17:49:02.190Z,14.70
2023-05-10T17:51:28.856Z,14.70
2023-05-10T17:53:55.528Z,14.60
2023-05-10T17:56:22.316Z,14.60
2023-05-10T17:58:50.337Z,14.60
2023-05-10T18:01:17.075Z,14.50
2023-05-10T18:03:43.735Z,14.50
2023-05-10T18:06:10.494Z,14.40
2023-05-10T18:08:37.377Z,14.40
2023-05-10T18:11:04.133Z,14.40
2023-05-10T18:13:30.755Z,14.40
2023-05-10T18:15:57.546Z,14.40
2023-05-10T18:18:24.345Z,14.30
2023-05-10T18:20:56.406Z,14.20
2023-05-10T18:23:23.618Z,14.20
2023-05-10T18:25:51.789Z,14.10
2023-05-10T18:28:18.635Z,14.10
2023-05-10T18:30:45.403Z,14.00
2023-05-10T18:33:12.491Z,14.00
2023-05-10T18:35:40.155Z,14.00
2023-05-10T18:38:07.808Z,13.90
2023-05-10T18:40:34.524Z,13.80
2023-05-10T18:43:01.223Z,13.80
2023-05-10T18:45:27.823Z,13.80
2023-05-10T18:47:54.776Z,13.80
2023-05-10T18:50:21.608Z,13.70
2023-05-10T18:52:48.811Z,13.60
2023-05-10T18:55:15.627Z,13.60
2023-05-10T18:57:42.660Z,13.50
2023-05-10T19:00:12.163Z,13.50
2023-05-10T19:02:39.814Z,13.50
2023-05-10T19:05:07.320Z,13.50
2023-05-10T19:07:34.224Z,13.50
2023-05-10T19:10:00.931Z,13.40
2023-05-10T19:12:28.304Z,13.40
2023-05-10T19:14:54.925Z,13.40
2023-05-10T19:17:22.694Z,13.40
2023-05-10T19:19:49.841Z,13.40
2023-05-10T19:22:16.456Z,13.40
2023-05-10T19:24:43.246Z,13.40
2023-05-10T19:27:09.941Z,13.40
2023-05-10T19:29:36.925Z,13.40
2023-05-10T19:32:04.370Z,13.30
2023-05-10T19:34:31.129Z,13.20
2023-05-10T19:36:57.813Z,13.20
2023-05-10T19:39:24.451Z,13.20
2023-05-10T19:41:51.281Z,13.10
2023-05-10T19:44:17.996Z,13.10
2023-05-10T19:46:44.879Z,13.10
2023-05-10T19:49:11.654Z,13.00
2023-05-10T19:51:38.423Z,13.00
2023-05-10T19:54:05.284Z,13.00
2023-05-10T19:56:32.165Z,13.00
2023-05-10T19:58:59.307Z,13.00
2023-05-10T20:01:26.199Z,13.00
2023-05-10T20:03:52.990Z,12.90
2023-05-10T20:06:19.857Z,12.90
2023-05-10T20:08:46.603Z,12.90
2023-05-10T20:11:13.371Z,12.90
2023-05-10T20:13:39.953Z,12.90
2023-05-10T20:16:07.072Z,12.90
2023-05-10T20:18:38.099Z,13.00
2023-05-10T20:21:09.888Z,13.00
2023-05-10T20:23:36.676Z,13.00
2023-05-10T20:26:03.786Z,13.00
2023-05-10T20:28:30.515Z,13.00
2023-05-10T20:30:57.798Z,13.00
2023-05-10T20:33:25.069Z,13.00
2023-05-10T20:35:52.357Z,13.00
2023-05-10T20:38:19.098Z,13.00
2023-05-10T20:40:47.081Z,13.00
2023-05-10T20:43:13.708Z,13.00
2023-05-10T20:45:40.490Z,13.00
2023-05-10T20:48:07.897Z,13.00
2023-05-10T20:50:34.623Z,13.00
2023-05-10T20:53:01.515Z,12.90
2023-05-10T20:55:28.727Z,12.90
2023-05-10T20:57:55.567Z,12.80
2023-05-10T21:00:25.900Z,12.80
2023-05-10T21:02:52.540Z,12.80
2023-05-10T21:05:19.194Z,12.80
2023-05-10T21:07:45.968Z,12.70
2023-05-10T21:10:12.729Z,12.60
2023-05-10T21:12:39.405Z,12.60
2023-05-10T21:15:07.986Z,12.60
2023-05-10T21:17:34.696Z,12.60
2023-05-10T21:20:02.224Z,12.60
2023-05-10T21:22:28.943Z,12.60
2023-05-10T21:24:55.723Z,12.60
2023-05-10T21:27:22.313Z,12.70
2023-05-10T21:29:48.906Z,12.70
2023-05-10T21:32:15.534Z,12.70
2023-05-10T21:34:42.527Z,12.70
2023-05-10T21:37:09.221Z,12.70
2023-05-10T21:39:35.987Z,12.70
2023-05-10T21:42:03.610Z,12.70
2023-05-10T21:44:31.343Z,12.70
2023-05-10T21:46:57.932Z,12.70
2023-05-10T21:49:24.582Z,12.70
2023-05-10T21:51:51.201Z,12.70
2023-05-10T21:54:17.843Z,12.70
2023-05-10T21:56:44.862Z,12.70
2023-05-10T21:59:11.495Z,12.70
2023-05-10T22:01:38.171Z,12.60
2023-05-10T22:04:04.797Z,12.60
2023-05-10T22:06:31.883Z,12.60
2023-05-10T22:08:58.548Z,12.60
2023-05-10T22:11:25.904Z,12.60
2023-05-10T22:13:52.609Z,12.60
2023-05-10T22:16:19.356Z,12.60
2023-05-10T22:18:46.096Z,12.60
2023-05-10T22:21:13.038Z,12.60
2023-05-10T22:23:39.653Z,12.60
2023-05-10T22:26:06.555Z,12.60
2023-05-10T22:28:33.183Z,12.60
2023-05-10T22:30:59.810Z,12.60
2023-05-10T22:33:27.587Z,12.60
2023-05-10T22:35:54.273Z,12.60
2023-05-10T22:38:21.376Z,12.50
2023-05-10T22:40:48.239Z,12.50
2023-05-10T22:43:16.313Z,12.50
2023-05-10T22:45:42.975Z,12.50
2023-05-10T22:48:09.732Z,12.50
2023-05-10T22:50:36.985Z,12.50
2023-05-10T22:53:03.634Z,12.50
2023-05-10T22:55:30.474Z,12.40
2023-05-10T22:57:57.149Z,12.50
2023-05-10T23:00:24.545Z,12.50
2023-05-10T23:02:51.522Z,12.50
2023-05-10T23:05:18.399Z,12.50
2023-05-10T23:07:45.082Z,12.40
2023-05-10T23:10:11.669Z,12.40
2023-05-10T23:12:38.507Z,12.40
2023-05-10T23:15:06.217Z,12.40
2023-05-10T23:17:32.977Z,12.40
2023-05-10T23:19:59.602Z,12.30
2023-05-10T23:22:26.277Z,12.30
2023-05-10T23:24:52.849Z,12.30
2023-05-10T23:27:19.602Z,12.30
2023-05-10T23:29:46.441Z,12.30
2023-05-10T23:32:13.069Z,12.30
2023-05-10T23:34:39.739Z,12.30
2023-05-10T23:37:06.327Z,12.20
2023-05-10T23:39:33.042Z,12.20
2023-05-10T23:41:59.619Z,12.20
2023-05-10T23:44:26.488Z,12.20
2023-05-10T23:46:53.127Z,12.20
2023-05-10T23:49:19.783Z,12.20
2023-05-10T23:51:46.396Z,12.20
2023-05-10T23:54:13.014Z,12.20
2023-05-10T23:56:39.618Z,12.20
2023-05-10T23:59:06.218Z,12.20
